createdAt,value
2022-10-31T00:08:40.257Z,101616.81
2022-10-31T00:11:17.434Z,101613.56
2022-10-31T00:13:54.163Z,101611.66
2022-10-31T00:16:33.492Z,101607.22
2022-10-31T00:19:11.918Z,101608.06
2022-10-31T00:21:51.227Z,101611.66
2022-10-31T06:58:01.874Z,101717.59
2022-10-31T07:00:41.480Z,101719.31
2022-10-31T07:03:21.532Z,101728.78
2022-10-31T07:06:00.702Z,101730.41
2022-10-31T07:08:38.194Z,101733.44
2022-10-31T07:11:15.328Z,101736.03
2022-10-31T07:13:54.786Z,101728.41
2022-10-31T07:16:31.975Z,101734.28
2022-10-31T07:19:09.437Z,101731.22
2022-10-31T07:21:46.848Z,101729.09
2022-10-31T07:24:25.707Z,101732.31
2022-10-31T07:27:31.817Z,101731.91
2022-10-31T07:30:14.482Z,101733.22
2022-10-31T07:32:54.728Z,101741.00
2022-10-31T07:35:33.948Z,101743.91
2022-10-31T07:38:15.431Z,101750.50
2022-10-31T07:40:56.227Z,101737.97
2022-10-31T07:43:34.217Z,101738.50
2022-10-31T07:46:33.543Z,101746.09
2022-10-31T07:49:29.353Z,101744.06
2022-10-31T07:52:41.822Z,101749.72
2022-10-31T07:55:48.329Z,101751.00
2022-10-31T07:58:26.448Z,101746.22
2022-10-31T08:01:03.668Z,101754.75
2022-10-31T08:03:52.299Z,101741.88
2022-10-31T08:06:49.782Z,101742.41
2022-10-31T08:09:36.317Z,101744.66
2022-10-31T08:12:21.009Z,101739.00
2022-10-31T08:14:57.817Z,101742.19
2022-10-31T08:17:35.178Z,101741.03
2022-10-31T08:20:15.490Z,101745.00
2022-10-31T08:23:01.836Z,101746.38
2022-10-31T08:25:40.249Z,101747.25
2022-10-31T08:28:17.792Z,101746.78
2022-10-31T08:30:58.331Z,101751.91
2022-10-31T08:33:50.348Z,101762.38
2022-10-31T08:36:32.774Z,101748.72
